UMMS 231100Z 15006MPS 9999 -RA SCT015 OVC044 05/04 Q1005 NOSIG
QNH:(hPa/inHg/mmHg)1005 / 29.68 / 754
QFE:(hPa/inHg/mmHg)980 / 28.93 / 735
Temperature5
Dew Point4
Visibility> 10000
WeatherLight Rain
Cloud CoverSCT (1500);
OVC (4400);
Transition Altitude6000 ft.
Transition LevelFL80
SQUAWK